sensor_id;sensor_type;location;lat;lon;timestamp;P1;durP1;ratioP1;P2;durP2;ratioP2
53267;SDS011;39156;51.176;6.738;2022-12-10T00:01:29;62.90;;;58.15;;
53267;SDS011;39156;51.176;6.738;2022-12-10T00:03:56;63.92;;;58.85;;
53267;SDS011;39156;51.176;6.738;2022-12-10T00:06:24;62.23;;;57.50;;
53267;SDS011;39156;51.176;6.738;2022-12-10T00:08:54;63.55;;;58.55;;
53267;SDS011;39156;51.176;6.738;2022-12-10T00:11:20;63.72;;;59.00;;
53267;SDS011;39156;51.176;6.738;2022-12-10T00:13:48;64.35;;;59.25;;
53267;SDS011;39156;51.176;6.738;2022-12-10T00:16:16;64.28;;;59.42;;
53267;SDS011;39156;51.176;6.738;2022-12-10T00:18:44;64.20;;;59.28;;
53267;SDS011;39156;51.176;6.738;2022-12-10T00:21:11;64.90;;;59.78;;
53267;SDS011;39156;51.176;6.738;2022-12-10T00:23:41;70.53;;;64.93;;
53267;SDS011;39156;51.176;6.738;2022-12-10T00:26:09;67.88;;;62.22;;
53267;SDS011;39156;51.176;6.738;2022-12-10T00:28:42;67.25;;;61.63;;
53267;SDS011;39156;51.176;6.738;2022-12-10T00:31:09;66.88;;;61.45;;
53267;SDS011;39156;51.176;6.738;2022-12-10T00:33:38;65.43;;;60.25;;
53267;SDS011;39156;51.176;6.738;2022-12-10T00:36:04;66.40;;;61.15;;
53267;SDS011;39156;51.176;6.738;2022-12-10T00:38:35;68.30;;;62.50;;
53267;SDS011;39156;51.176;6.738;2022-12-10T00:41:02;68.27;;;62.87;;
53267;SDS011;39156;51.176;6.738;2022-12-10T00:43:28;68.13;;;62.53;;
53267;SDS011;39156;51.176;6.738;2022-12-10T00:45:54;68.50;;;63.00;;
53267;SDS011;39156;51.176;6.738;2022-12-10T00:48:21;68.63;;;62.80;;
53267;SDS011;39156;51.176;6.738;2022-12-10T00:50:57;67.85;;;62.35;;
53267;SDS011;39156;51.176;6.738;2022-12-10T00:53:29;67.35;;;61.92;;
53267;SDS011;39156;51.176;6.738;2022-12-10T00:55:57;68.57;;;63.17;;
53267;SDS011;39156;51.176;6.738;2022-12-10T00:58:26;66.07;;;60.97;;
53267;SDS011;39156;51.176;6.738;2022-12-10T01:00:54;65.57;;;60.17;;
53267;SDS011;39156;51.176;6.738;2022-12-10T01:03:37;66.32;;;61.03;;
53267;SDS011;39156;51.176;6.738;2022-12-10T01:06:19;69.13;;;63.65;;
53267;SDS011;39156;51.176;6.738;2022-12-10T01:08:57;67.30;;;61.92;;
53267;SDS011;39156;51.176;6.738;2022-12-10T01:11:28;68.68;;;62.95;;
53267;SDS011;39156;51.176;6.738;2022-12-10T01:13:58;67.55;;;62.05;;
53267;SDS011;39156;51.176;6.738;2022-12-10T01:16:24;69.00;;;63.58;;
53267;SDS011;39156;51.176;6.738;2022-12-10T01:18:57;66.18;;;60.90;;
53267;SDS011;39156;51.176;6.738;2022-12-10T01:21:24;68.70;;;62.70;;
53267;SDS011;39156;51.176;6.738;2022-12-10T01:23:52;68.43;;;63.00;;
53267;SDS011;39156;51.176;6.738;2022-12-10T01:26:23;67.45;;;61.97;;
53267;SDS011;39156;51.176;6.738;2022-12-10T01:28:52;68.28;;;62.75;;
53267;SDS011;39156;51.176;6.738;2022-12-10T01:31:23;67.60;;;62.47;;
53267;SDS011;39156;51.176;6.738;2022-12-10T01:33:55;67.35;;;61.97;;
53267;SDS011;39156;51.176;6.738;2022-12-10T01:36:27;68.72;;;63.30;;
53267;SDS011;39156;51.176;6.738;2022-12-10T01:38:56;66.65;;;61.35;;
53267;SDS011;39156;51.176;6.738;2022-12-10T01:41:30;67.32;;;62.03;;
53267;SDS011;39156;51.176;6.738;2022-12-10T01:46:36;66.05;;;60.88;;
53267;SDS011;39156;51.176;6.738;2022-12-10T01:49:09;66.53;;;61.25;;
53267;SDS011;39156;51.176;6.738;2022-12-10T01:51:38;67.40;;;62.10;;
53267;SDS011;39156;51.176;6.738;2022-12-10T01:54:08;67.28;;;61.95;;
53267;SDS011;39156;51.176;6.738;2022-12-10T01:56:40;65.85;;;60.92;;
53267;SDS011;39156;51.176;6.738;2022-12-10T01:59:10;66.93;;;61.50;;
53267;SDS011;39156;51.176;6.738;2022-12-10T02:01:48;68.72;;;63.20;;
53267;SDS011;39156;51.176;6.738;2022-12-10T02:04:50;66.15;;;61.13;;
53267;SDS011;39156;51.176;6.738;2022-12-10T02:13:55;67.17;;;61.93;;
53267;SDS011;39156;51.176;6.738;2022-12-10T02:16:26;68.63;;;63.28;;
53267;SDS011;39156;51.176;6.738;2022-12-10T02:22:22;67.80;;;62.10;;
53267;SDS011;39156;51.176;6.738;2022-12-10T02:24:51;67.45;;;62.17;;
53267;SDS011;39156;51.176;6.738;2022-12-10T02:29:54;67.95;;;62.78;;
53267;SDS011;39156;51.176;6.738;2022-12-10T02:32:23;68.40;;;62.67;;
53267;SDS011;39156;51.176;6.738;2022-12-10T02:34:57;66.65;;;61.42;;
53267;SDS011;39156;51.176;6.738;2022-12-10T02:37:38;67.95;;;62.80;;
53267;SDS011;39156;51.176;6.738;2022-12-10T02:40:12;69.55;;;64.05;;
53267;SDS011;39156;51.176;6.738;2022-12-10T02:42:44;69.10;;;63.47;;
53267;SDS011;39156;51.176;6.738;2022-12-10T02:45:13;69.78;;;64.22;;
53267;SDS011;39156;51.176;6.738;2022-12-10T02:47:39;68.30;;;62.95;;
53267;SDS011;39156;51.176;6.738;2022-12-10T02:50:06;69.63;;;64.07;;
53267;SDS011;39156;51.176;6.738;2022-12-10T02:52:32;68.15;;;62.83;;
53267;SDS011;39156;51.176;6.738;2022-12-10T02:54:58;66.88;;;61.15;;
53267;SDS011;39156;51.176;6.738;2022-12-10T02:57:37;69.05;;;63.58;;
53267;SDS011;39156;51.176;6.738;2022-12-10T03:00:18;67.38;;;61.90;;
53267;SDS011;39156;51.176;6.738;2022-12-10T03:08:09;68.28;;;62.60;;
53267;SDS011;39156;51.176;6.738;2022-12-10T03:13:38;66.65;;;61.13;;
53267;SDS011;39156;51.176;6.738;2022-12-10T03:16:13;65.07;;;59.95;;
53267;SDS011;39156;51.176;6.738;2022-12-10T03:18:40;67.10;;;61.67;;
53267;SDS011;39156;51.176;6.738;2022-12-10T03:21:08;65.57;;;60.20;;
53267;SDS011;39156;51.176;6.738;2022-12-10T03:23:35;67.43;;;61.90;;
53267;SDS011;39156;51.176;6.738;2022-12-10T03:26:05;65.97;;;60.72;;
53267;SDS011;39156;51.176;6.738;2022-12-10T03:28:32;67.35;;;62.05;;
53267;SDS011;39156;51.176;6.738;2022-12-10T03:31:06;65.60;;;60.22;;
53267;SDS011;39156;51.176;6.738;2022-12-10T03:33:35;64.75;;;59.47;;
53267;SDS011;39156;51.176;6.738;2022-12-10T03:36:03;65.10;;;60.00;;
53267;SDS011;39156;51.176;6.738;2022-12-10T03:38:30;64.82;;;59.78;;
53267;SDS011;39156;51.176;6.738;2022-12-10T03:40:56;65.35;;;60.10;;
53267;SDS011;39156;51.176;6.738;2022-12-10T03:43:22;64.05;;;59.33;;
53267;SDS011;39156;51.176;6.738;2022-12-10T03:45:47;65.63;;;60.60;;
53267;SDS011;39156;51.176;6.738;2022-12-10T03:48:13;64.97;;;60.08;;
53267;SDS011;39156;51.176;6.738;2022-12-10T03:50:39;64.35;;;59.25;;
53267;SDS011;39156;51.176;6.738;2022-12-10T03:53:04;64.57;;;59.72;;
53267;SDS011;39156;51.176;6.738;2022-12-10T03:55:30;65.63;;;60.53;;
53267;SDS011;39156;51.176;6.738;2022-12-10T03:57:57;63.78;;;58.63;;
53267;SDS011;39156;51.176;6.738;2022-12-10T04:00:23;63.78;;;58.70;;
53267;SDS011;39156;51.176;6.738;2022-12-10T04:02:49;63.80;;;58.75;;
53267;SDS011;39156;51.176;6.738;2022-12-10T04:05:15;65.93;;;60.80;;
53267;SDS011;39156;51.176;6.738;2022-12-10T04:07:41;64.38;;;59.40;;
53267;SDS011;39156;51.176;6.738;2022-12-10T04:10:07;63.75;;;58.58;;
53267;SDS011;39156;51.176;6.738;2022-12-10T04:12:33;66.20;;;60.63;;
53267;SDS011;39156;51.176;6.738;2022-12-10T04:14:59;65.65;;;60.35;;
53267;SDS011;39156;51.176;6.738;2022-12-10T04:17:43;68.38;;;62.90;;
53267;SDS011;39156;51.176;6.738;2022-12-10T04:20:09;66.25;;;60.88;;
53267;SDS011;39156;51.176;6.738;2022-12-10T04:22:54;67.72;;;62.03;;
53267;SDS011;39156;51.176;6.738;2022-12-10T04:25:39;65.95;;;60.55;;
53267;SDS011;39156;51.176;6.738;2022-12-10T04:28:23;67.07;;;61.78;;
53267;SDS011;39156;51.176;6.738;2022-12-10T04:30:48;67.68;;;61.80;;
53267;SDS011;39156;51.176;6.738;2022-12-10T04:33:14;68.68;;;63.22;;
53267;SDS011;39156;51.176;6.738;2022-12-10T04:35:39;68.68;;;63.05;;
53267;SDS011;39156;51.176;6.738;2022-12-10T04:38:05;70.45;;;64.75;;
53267;SDS011;39156;51.176;6.738;2022-12-10T04:40:31;68.75;;;63.00;;
53267;SDS011;39156;51.176;6.738;2022-12-10T04:42:56;70.97;;;65.00;;
53267;SDS011;39156;51.176;6.738;2022-12-10T04:45:22;71.25;;;65.25;;
53267;SDS011;39156;51.176;6.738;2022-12-10T04:47:48;71.93;;;65.72;;
53267;SDS011;39156;51.176;6.738;2022-12-10T04:50:13;71.07;;;65.00;;
53267;SDS011;39156;51.176;6.738;2022-12-10T04:52:39;71.43;;;65.53;;
53267;SDS011;39156;51.176;6.738;2022-12-10T04:55:05;70.70;;;64.70;;
53267;SDS011;39156;51.176;6.738;2022-12-10T04:57:31;72.07;;;65.72;;
53267;SDS011;39156;51.176;6.738;2022-12-10T04:59:56;71.45;;;65.25;;
53267;SDS011;39156;51.176;6.738;2022-12-10T05:02:22;71.80;;;65.70;;
53267;SDS011;39156;51.176;6.738;2022-12-10T05:04:48;72.65;;;66.45;;
53267;SDS011;39156;51.176;6.738;2022-12-10T05:07:14;71.32;;;65.25;;
53267;SDS011;39156;51.176;6.738;2022-12-10T05:09:40;70.90;;;64.90;;
53267;SDS011;39156;51.176;6.738;2022-12-10T05:12:05;73.15;;;67.05;;
53267;SDS011;39156;51.176;6.738;2022-12-10T05:14:31;70.60;;;64.60;;
53267;SDS011;39156;51.176;6.738;2022-12-10T05:16:57;72.57;;;66.57;;
53267;SDS011;39156;51.176;6.738;2022-12-10T05:19:22;71.65;;;65.55;;
53267;SDS011;39156;51.176;6.738;2022-12-10T05:21:51;72.60;;;65.95;;
53267;SDS011;39156;51.176;6.738;2022-12-10T05:24:35;72.57;;;66.10;;
53267;SDS011;39156;51.176;6.738;2022-12-10T05:27:01;70.00;;;64.32;;
53267;SDS011;39156;51.176;6.738;2022-12-10T05:29:27;71.78;;;65.68;;
53267;SDS011;39156;51.176;6.738;2022-12-10T05:31:53;70.82;;;64.95;;
53267;SDS011;39156;51.176;6.738;2022-12-10T05:34:18;68.93;;;63.30;;
53267;SDS011;39156;51.176;6.738;2022-12-10T05:36:44;70.68;;;64.47;;
53267;SDS011;39156;51.176;6.738;2022-12-10T05:39:10;69.72;;;63.83;;
53267;SDS011;39156;51.176;6.738;2022-12-10T05:41:37;70.07;;;64.28;;
53267;SDS011;39156;51.176;6.738;2022-12-10T05:44:05;69.88;;;64.18;;
53267;SDS011;39156;51.176;6.738;2022-12-10T05:46:33;70.35;;;64.55;;
53267;SDS011;39156;51.176;6.738;2022-12-10T05:51:28;68.32;;;62.55;;
53267;SDS011;39156;51.176;6.738;2022-12-10T05:53:58;72.78;;;66.60;;
53267;SDS011;39156;51.176;6.738;2022-12-10T05:56:26;71.07;;;65.10;;
53267;SDS011;39156;51.176;6.738;2022-12-10T05:58:54;70.93;;;65.18;;
53267;SDS011;39156;51.176;6.738;2022-12-10T06:01:26;71.30;;;65.43;;
53267;SDS011;39156;51.176;6.738;2022-12-10T06:03:54;73.85;;;67.65;;
53267;SDS011;39156;51.176;6.738;2022-12-10T06:06:23;73.32;;;67.15;;
53267;SDS011;39156;51.176;6.738;2022-12-10T06:08:52;72.45;;;66.15;;
53267;SDS011;39156;51.176;6.738;2022-12-10T06:11:18;73.35;;;67.20;;
53267;SDS011;39156;51.176;6.738;2022-12-10T06:13:43;72.47;;;66.45;;
53267;SDS011;39156;51.176;6.738;2022-12-10T06:16:10;73.03;;;66.60;;
53267;SDS011;39156;51.176;6.738;2022-12-10T06:18:38;72.78;;;66.40;;
53267;SDS011;39156;51.176;6.738;2022-12-10T06:21:08;76.97;;;70.18;;
53267;SDS011;39156;51.176;6.738;2022-12-10T06:23:37;74.95;;;68.05;;
53267;SDS011;39156;51.176;6.738;2022-12-10T06:26:05;74.35;;;68.00;;
53267;SDS011;39156;51.176;6.738;2022-12-10T06:28:46;75.75;;;68.95;;
53267;SDS011;39156;51.176;6.738;2022-12-10T06:31:12;75.47;;;68.80;;
53267;SDS011;39156;51.176;6.738;2022-12-10T06:33:39;76.78;;;70.03;;
53267;SDS011;39156;51.176;6.738;2022-12-10T06:36:06;75.70;;;68.93;;
53267;SDS011;39156;51.176;6.738;2022-12-10T06:38:34;74.00;;;67.53;;
53267;SDS011;39156;51.176;6.738;2022-12-10T06:41:03;75.80;;;68.90;;
53267;SDS011;39156;51.176;6.738;2022-12-10T06:43:31;77.07;;;70.25;;
53267;SDS011;39156;51.176;6.738;2022-12-10T06:45:57;76.57;;;69.78;;
53267;SDS011;39156;51.176;6.738;2022-12-10T06:48:23;76.45;;;69.60;;
53267;SDS011;39156;51.176;6.738;2022-12-10T06:50:49;78.78;;;71.90;;
53267;SDS011;39156;51.176;6.738;2022-12-10T06:53:15;79.82;;;72.53;;
53267;SDS011;39156;51.176;6.738;2022-12-10T06:55:40;76.55;;;69.82;;
53267;SDS011;39156;51.176;6.738;2022-12-10T06:58:06;76.50;;;69.57;;
53267;SDS011;39156;51.176;6.738;2022-12-10T07:00:32;75.85;;;68.90;;
53267;SDS011;39156;51.176;6.738;2022-12-10T07:02:57;76.60;;;69.55;;
53267;SDS011;39156;51.176;6.738;2022-12-10T07:05:23;74.68;;;67.95;;
53267;SDS011;39156;51.176;6.738;2022-12-10T07:07:49;79.45;;;72.13;;
53267;SDS011;39156;51.176;6.738;2022-12-10T07:10:14;80.30;;;73.13;;
53267;SDS011;39156;51.176;6.738;2022-12-10T07:12:40;75.10;;;68.43;;
53267;SDS011;39156;51.176;6.738;2022-12-10T07:15:06;76.25;;;69.47;;
53267;SDS011;39156;51.176;6.738;2022-12-10T07:17:32;75.85;;;69.07;;
53267;SDS011;39156;51.176;6.738;2022-12-10T07:19:58;79.32;;;71.82;;
53267;SDS011;39156;51.176;6.738;2022-12-10T07:22:24;79.00;;;71.70;;
53267;SDS011;39156;51.176;6.738;2022-12-10T07:24:49;76.82;;;69.60;;
53267;SDS011;39156;51.176;6.738;2022-12-10T07:27:15;76.07;;;69.35;;
53267;SDS011;39156;51.176;6.738;2022-12-10T07:29:41;74.82;;;68.10;;
53267;SDS011;39156;51.176;6.738;2022-12-10T07:32:08;78.45;;;71.57;;
53267;SDS011;39156;51.176;6.738;2022-12-10T07:34:34;77.50;;;70.43;;
53267;SDS011;39156;51.176;6.738;2022-12-10T07:37:00;76.60;;;69.55;;
53267;SDS011;39156;51.176;6.738;2022-12-10T07:39:25;76.68;;;69.68;;
53267;SDS011;39156;51.176;6.738;2022-12-10T07:41:52;76.40;;;69.32;;
53267;SDS011;39156;51.176;6.738;2022-12-10T07:44:22;79.13;;;71.35;;
53267;SDS011;39156;51.176;6.738;2022-12-10T07:46:50;79.20;;;71.80;;
53267;SDS011;39156;51.176;6.738;2022-12-10T07:49:17;74.63;;;67.47;;
53267;SDS011;39156;51.176;6.738;2022-12-10T07:51:44;74.68;;;67.78;;
53267;SDS011;39156;51.176;6.738;2022-12-10T07:54:14;79.70;;;72.45;;
53267;SDS011;39156;51.176;6.738;2022-12-10T07:56:41;76.13;;;69.30;;
53267;SDS011;39156;51.176;6.738;2022-12-10T07:59:06;74.80;;;67.93;;
53267;SDS011;39156;51.176;6.738;2022-12-10T08:01:33;79.53;;;71.82;;
53267;SDS011;39156;51.176;6.738;2022-12-10T08:03:58;78.22;;;70.85;;
53267;SDS011;39156;51.176;6.738;2022-12-10T08:06:25;79.32;;;71.80;;
53267;SDS011;39156;51.176;6.738;2022-12-10T08:08:53;77.32;;;70.32;;
53267;SDS011;39156;51.176;6.738;2022-12-10T08:11:19;77.22;;;70.10;;
53267;SDS011;39156;51.176;6.738;2022-12-10T08:13:46;75.57;;;68.55;;
53267;SDS011;39156;51.176;6.738;2022-12-10T08:16:18;74.80;;;68.07;;
53267;SDS011;39156;51.176;6.738;2022-12-10T08:18:50;77.50;;;70.57;;
53267;SDS011;39156;51.176;6.738;2022-12-10T08:21:17;75.50;;;68.68;;
53267;SDS011;39156;51.176;6.738;2022-12-10T08:23:45;77.30;;;70.10;;
53267;SDS011;39156;51.176;6.738;2022-12-10T08:26:15;74.60;;;67.80;;
53267;SDS011;39156;51.176;6.738;2022-12-10T08:28:47;77.40;;;70.18;;
53267;SDS011;39156;51.176;6.738;2022-12-10T08:31:14;77.00;;;69.57;;
53267;SDS011;39156;51.176;6.738;2022-12-10T08:33:42;79.15;;;71.55;;
53267;SDS011;39156;51.176;6.738;2022-12-10T08:36:09;79.45;;;71.75;;
53267;SDS011;39156;51.176;6.738;2022-12-10T08:38:38;79.43;;;71.65;;
53267;SDS011;39156;51.176;6.738;2022-12-10T08:41:09;81.43;;;73.57;;
53267;SDS011;39156;51.176;6.738;2022-12-10T08:43:40;81.72;;;73.97;;
53267;SDS011;39156;51.176;6.738;2022-12-10T08:46:06;78.72;;;71.45;;
53267;SDS011;39156;51.176;6.738;2022-12-10T08:48:33;81.35;;;73.18;;
53267;SDS011;39156;51.176;6.738;2022-12-10T08:50:59;76.07;;;68.78;;
53267;SDS011;39156;51.176;6.738;2022-12-10T08:53:25;81.05;;;72.90;;
53267;SDS011;39156;51.176;6.738;2022-12-10T08:55:51;78.45;;;70.90;;
53267;SDS011;39156;51.176;6.738;2022-12-10T08:58:18;77.90;;;70.35;;
53267;SDS011;39156;51.176;6.738;2022-12-10T09:00:44;80.78;;;73.10;;
53267;SDS011;39156;51.176;6.738;2022-12-10T09:03:11;78.25;;;70.40;;
53267;SDS011;39156;51.176;6.738;2022-12-10T09:05:37;79.35;;;71.28;;
53267;SDS011;39156;51.176;6.738;2022-12-10T09:08:03;79.85;;;71.95;;
53267;SDS011;39156;51.176;6.738;2022-12-10T09:10:29;78.78;;;70.97;;
53267;SDS011;39156;51.176;6.738;2022-12-10T09:12:54;79.40;;;71.53;;
53267;SDS011;39156;51.176;6.738;2022-12-10T09:15:20;78.63;;;70.88;;
53267;SDS011;39156;51.176;6.738;2022-12-10T09:17:46;78.63;;;71.18;;
53267;SDS011;39156;51.176;6.738;2022-12-10T09:20:11;77.20;;;69.97;;
53267;SDS011;39156;51.176;6.738;2022-12-10T09:22:38;79.78;;;72.07;;
53267;SDS011;39156;51.176;6.738;2022-12-10T09:25:04;79.55;;;71.88;;
53267;SDS011;39156;51.176;6.738;2022-12-10T09:27:32;76.72;;;68.97;;
53267;SDS011;39156;51.176;6.738;2022-12-10T09:29:58;77.70;;;70.10;;
53267;SDS011;39156;51.176;6.738;2022-12-10T09:32:24;76.88;;;69.32;;
53267;SDS011;39156;51.176;6.738;2022-12-10T09:34:50;76.95;;;69.45;;
53267;SDS011;39156;51.176;6.738;2022-12-10T09:37:16;77.45;;;70.22;;
53267;SDS011;39156;51.176;6.738;2022-12-10T09:39:42;76.78;;;69.95;;
53267;SDS011;39156;51.176;6.738;2022-12-10T09:47:43;76.50;;;68.97;;
53267;SDS011;39156;51.176;6.738;2022-12-10T09:50:41;77.40;;;69.55;;
53267;SDS011;39156;51.176;6.738;2022-12-10T09:53:30;78.80;;;71.00;;
53267;SDS011;39156;51.176;6.738;2022-12-10T09:55:57;77.40;;;70.13;;
53267;SDS011;39156;51.176;6.738;2022-12-10T09:58:24;75.07;;;67.57;;
53267;SDS011;39156;51.176;6.738;2022-12-10T10:00:59;80.43;;;72.35;;
53267;SDS011;39156;51.176;6.738;2022-12-10T10:03:31;73.35;;;66.78;;
53267;SDS011;39156;51.176;6.738;2022-12-10T10:06:03;73.47;;;66.57;;
53267;SDS011;39156;51.176;6.738;2022-12-10T10:11:01;73.95;;;66.65;;
53267;SDS011;39156;51.176;6.738;2022-12-10T10:19:05;71.75;;;64.97;;
53267;SDS011;39156;51.176;6.738;2022-12-10T10:21:55;69.22;;;62.92;;
53267;SDS011;39156;51.176;6.738;2022-12-10T10:24:21;77.70;;;70.80;;
53267;SDS011;39156;51.176;6.738;2022-12-10T10:26:53;70.60;;;64.40;;
53267;SDS011;39156;51.176;6.738;2022-12-10T10:29:23;71.03;;;64.65;;
53267;SDS011;39156;51.176;6.738;2022-12-10T10:32:12;71.65;;;65.07;;
53267;SDS011;39156;51.176;6.738;2022-12-10T10:34:45;70.05;;;63.58;;
53267;SDS011;39156;51.176;6.738;2022-12-10T10:37:17;71.13;;;64.63;;
53267;SDS011;39156;51.176;6.738;2022-12-10T10:39:50;69.65;;;63.42;;
53267;SDS011;39156;51.176;6.738;2022-12-10T10:42:25;71.73;;;64.80;;
53267;SDS011;39156;51.176;6.738;2022-12-10T10:45:04;70.97;;;64.47;;
53267;SDS011;39156;51.176;6.738;2022-12-10T10:48:16;67.10;;;61.15;;
53267;SDS011;39156;51.176;6.738;2022-12-10T10:50:49;68.22;;;62.42;;
53267;SDS011;39156;51.176;6.738;2022-12-10T10:53:28;68.45;;;62.45;;
53267;SDS011;39156;51.176;6.738;2022-12-10T10:58:50;68.93;;;62.92;;
53267;SDS011;39156;51.176;6.738;2022-12-10T11:01:44;68.78;;;62.28;;
53267;SDS011;39156;51.176;6.738;2022-12-10T11:04:22;68.90;;;62.60;;
53267;SDS011;39156;51.176;6.738;2022-12-10T11:06:55;67.82;;;61.80;;
53267;SDS011;39156;51.176;6.738;2022-12-10T11:09:27;68.68;;;62.30;;
53267;SDS011;39156;51.176;6.738;2022-12-10T11:11:58;66.68;;;60.58;;
53267;SDS011;39156;51.176;6.738;2022-12-10T11:14:39;67.53;;;61.80;;
53267;SDS011;39156;51.176;6.738;2022-12-10T11:19:54;67.18;;;61.47;;
53267;SDS011;39156;51.176;6.738;2022-12-10T11:22:32;63.38;;;58.22;;
53267;SDS011;39156;51.176;6.738;2022-12-10T11:24:58;64.47;;;59.22;;
53267;SDS011;39156;51.176;6.738;2022-12-10T11:27:32;64.35;;;59.08;;
53267;SDS011;39156;51.176;6.738;2022-12-10T11:30:20;64.63;;;59.10;;
53267;SDS011;39156;51.176;6.738;2022-12-10T11:39:02;63.90;;;58.63;;
53267;SDS011;39156;51.176;6.738;2022-12-10T11:41:33;64.13;;;58.55;;
53267;SDS011;39156;51.176;6.738;2022-12-10T11:44:13;64.07;;;58.67;;
53267;SDS011;39156;51.176;6.738;2022-12-10T11:47:05;66.10;;;59.92;;
53267;SDS011;39156;51.176;6.738;2022-12-10T11:52:42;65.72;;;59.97;;
53267;SDS011;39156;51.176;6.738;2022-12-10T12:04:49;63.67;;;58.53;;
53267;SDS011;39156;51.176;6.738;2022-12-10T12:07:40;65.25;;;59.88;;
53267;SDS011;39156;51.176;6.738;2022-12-10T12:13:04;64.60;;;58.80;;
53267;SDS011;39156;51.176;6.738;2022-12-10T12:15:40;62.13;;;57.00;;
53267;SDS011;39156;51.176;6.738;2022-12-10T12:18:18;61.40;;;56.45;;
53267;SDS011;39156;51.176;6.738;2022-12-10T12:21:09;62.28;;;57.08;;
53267;SDS011;39156;51.176;6.738;2022-12-10T12:23:43;60.92;;;56.22;;
53267;SDS011;39156;51.176;6.738;2022-12-10T12:26:41;62.20;;;57.42;;
53267;SDS011;39156;51.176;6.738;2022-12-10T12:31:54;61.47;;;56.53;;
53267;SDS011;39156;51.176;6.738;2022-12-10T12:37:22;61.88;;;57.08;;
53267;SDS011;39156;51.176;6.738;2022-12-10T12:40:00;61.38;;;56.53;;
53267;SDS011;39156;51.176;6.738;2022-12-10T12:43:00;64.35;;;59.53;;
53267;SDS011;39156;51.176;6.738;2022-12-10T12:46:03;63.75;;;58.40;;
53267;SDS011;39156;51.176;6.738;2022-12-10T12:51:42;63.80;;;58.78;;
53267;SDS011;39156;51.176;6.738;2022-12-10T12:54:16;73.75;;;67.55;;
53267;SDS011;39156;51.176;6.738;2022-12-10T13:02:45;64.40;;;59.00;;
53267;SDS011;39156;51.176;6.738;2022-12-10T13:05:30;67.03;;;61.53;;
53267;SDS011;39156;51.176;6.738;2022-12-10T13:13:39;61.63;;;56.72;;
53267;SDS011;39156;51.176;6.738;2022-12-10T13:19:15;63.20;;;58.53;;
53267;SDS011;39156;51.176;6.738;2022-12-10T13:24:21;61.40;;;56.53;;
53267;SDS011;39156;51.176;6.738;2022-12-10T13:29:46;62.47;;;57.58;;
53267;SDS011;39156;51.176;6.738;2022-12-10T13:37:35;61.53;;;56.70;;
53267;SDS011;39156;51.176;6.738;2022-12-10T13:43:24;61.88;;;57.03;;
53267;SDS011;39156;51.176;6.738;2022-12-10T13:49:00;61.50;;;56.80;;
53267;SDS011;39156;51.176;6.738;2022-12-10T13:51:39;62.30;;;57.25;;
53267;SDS011;39156;51.176;6.738;2022-12-10T13:54:17;60.50;;;55.97;;
53267;SDS011;39156;51.176;6.738;2022-12-10T13:57:23;62.67;;;57.97;;
53267;SDS011;39156;51.176;6.738;2022-12-10T14:00:08;61.05;;;56.30;;
53267;SDS011;39156;51.176;6.738;2022-12-10T14:08:38;61.20;;;56.22;;
53267;SDS011;39156;51.176;6.738;2022-12-10T14:11:14;65.30;;;60.13;;
53267;SDS011;39156;51.176;6.738;2022-12-10T14:13:48;63.13;;;58.13;;
53267;SDS011;39156;51.176;6.738;2022-12-10T14:16:20;64.63;;;59.47;;
53267;SDS011;39156;51.176;6.738;2022-12-10T14:18:58;66.15;;;60.65;;
53267;SDS011;39156;51.176;6.738;2022-12-10T14:21:31;64.82;;;59.40;;
53267;SDS011;39156;51.176;6.738;2022-12-10T14:23:59;64.88;;;59.65;;
53267;SDS011;39156;51.176;6.738;2022-12-10T14:26:29;64.55;;;58.78;;
53267;SDS011;39156;51.176;6.738;2022-12-10T14:31:44;64.18;;;58.78;;
53267;SDS011;39156;51.176;6.738;2022-12-10T14:34:14;64.50;;;59.13;;
53267;SDS011;39156;51.176;6.738;2022-12-10T14:36:44;67.35;;;61.78;;
53267;SDS011;39156;51.176;6.738;2022-12-10T14:39:14;65.35;;;59.80;;
53267;SDS011;39156;51.176;6.738;2022-12-10T14:41:48;65.60;;;60.25;;
53267;SDS011;39156;51.176;6.738;2022-12-10T14:44:17;65.25;;;59.67;;
53267;SDS011;39156;51.176;6.738;2022-12-10T14:46:46;68.32;;;62.33;;
53267;SDS011;39156;51.176;6.738;2022-12-10T14:49:23;66.93;;;61.20;;
53267;SDS011;39156;51.176;6.738;2022-12-10T14:52:12;68.70;;;62.63;;
53267;SDS011;39156;51.176;6.738;2022-12-10T14:55:00;67.18;;;61.63;;
53267;SDS011;39156;51.176;6.738;2022-12-10T14:57:40;67.15;;;61.85;;
53267;SDS011;39156;51.176;6.738;2022-12-10T15:00:18;66.68;;;61.05;;
53267;SDS011;39156;51.176;6.738;2022-12-10T15:02:51;72.78;;;66.65;;
53267;SDS011;39156;51.176;6.738;2022-12-10T15:05:27;68.28;;;62.45;;
53267;SDS011;39156;51.176;6.738;2022-12-10T15:10:49;66.85;;;60.97;;
53267;SDS011;39156;51.176;6.738;2022-12-10T15:13:29;64.68;;;59.20;;
53267;SDS011;39156;51.176;6.738;2022-12-10T15:15:58;68.77;;;63.10;;
53267;SDS011;39156;51.176;6.738;2022-12-10T15:18:31;69.20;;;63.25;;
53267;SDS011;39156;51.176;6.738;2022-12-10T15:21:09;65.22;;;59.65;;
53267;SDS011;39156;51.176;6.738;2022-12-10T15:23:44;67.55;;;61.88;;
53267;SDS011;39156;51.176;6.738;2022-12-10T15:26:15;65.50;;;59.90;;
53267;SDS011;39156;51.176;6.738;2022-12-10T15:28:50;65.93;;;60.30;;
53267;SDS011;39156;51.176;6.738;2022-12-10T15:33:53;64.70;;;59.22;;
53267;SDS011;39156;51.176;6.738;2022-12-10T15:36:27;65.13;;;59.90;;
53267;SDS011;39156;51.176;6.738;2022-12-10T15:44:32;66.53;;;60.88;;
53267;SDS011;39156;51.176;6.738;2022-12-10T15:47:17;67.38;;;61.65;;
53267;SDS011;39156;51.176;6.738;2022-12-10T15:49:46;63.70;;;58.15;;
53267;SDS011;39156;51.176;6.738;2022-12-10T15:54:46;69.72;;;63.35;;
53267;SDS011;39156;51.176;6.738;2022-12-10T15:57:15;66.05;;;60.15;;
53267;SDS011;39156;51.176;6.738;2022-12-10T15:59:44;68.80;;;62.63;;
53267;SDS011;39156;51.176;6.738;2022-12-10T16:05:19;68.78;;;62.30;;
53267;SDS011;39156;51.176;6.738;2022-12-10T16:07:48;69.10;;;62.78;;
53267;SDS011;39156;51.176;6.738;2022-12-10T16:10:18;67.40;;;61.60;;
53267;SDS011;39156;51.176;6.738;2022-12-10T16:12:48;69.43;;;63.10;;
53267;SDS011;39156;51.176;6.738;2022-12-10T16:15:40;67.93;;;61.85;;
53267;SDS011;39156;51.176;6.738;2022-12-10T16:18:16;67.70;;;61.75;;
53267;SDS011;39156;51.176;6.738;2022-12-10T16:20:42;70.65;;;64.70;;
53267;SDS011;39156;51.176;6.738;2022-12-10T16:23:08;68.18;;;62.00;;
53267;SDS011;39156;51.176;6.738;2022-12-10T16:25:35;65.38;;;59.65;;
53267;SDS011;39156;51.176;6.738;2022-12-10T16:28:03;64.72;;;59.28;;
53267;SDS011;39156;51.176;6.738;2022-12-10T16:30:36;67.78;;;61.88;;
53267;SDS011;39156;51.176;6.738;2022-12-10T16:33:06;65.32;;;59.70;;
53267;SDS011;39156;51.176;6.738;2022-12-10T16:35:32;65.80;;;60.03;;
53267;SDS011;39156;51.176;6.738;2022-12-10T16:37:58;64.03;;;58.75;;
53267;SDS011;39156;51.176;6.738;2022-12-10T16:40:25;65.37;;;59.60;;
53267;SDS011;39156;51.176;6.738;2022-12-10T16:42:53;65.63;;;59.58;;
53267;SDS011;39156;51.176;6.738;2022-12-10T16:45:30;69.78;;;63.67;;
53267;SDS011;39156;51.176;6.738;2022-12-10T16:48:00;69.97;;;64.03;;
53267;SDS011;39156;51.176;6.738;2022-12-10T16:50:27;66.35;;;60.60;;
53267;SDS011;39156;51.176;6.738;2022-12-10T16:52:54;65.53;;;59.77;;
53267;SDS011;39156;51.176;6.738;2022-12-10T16:55:24;65.80;;;60.15;;